Time;durP1;ratioP1;P1;durP2;ratioP2;P2;SDS_P1;SDS_P2;PMS_P1;PMS_P2;Temp;Humidity;BMP_temperature;BMP_pressure;BME280_temperature;BME280_humidity;BME280_pressure;Samples;Min_cycle;Max_cycle;Signal;HPM_P1;HPM_P2
2022/08/12 00:44:43;;;;;;;8.13;3.08;;;22.00;99.90;;;;;;5053463;28;20252;-72
2022/08/12 00:47:12;;;;;;;13.05;3.17;;;21.80;99.90;;;;;;5052544;28;20181;-72
2022/08/12 00:49:40;;;;;;;8.80;2.85;;;22.00;99.90;;;;;;5053077;28;20180;-72
2022/08/12 00:52:09;;;;;;;16.65;3.70;;;21.80;99.90;;;;;;5052958;28;20173;-72
2022/08/12 00:54:50;;;;;;;6.05;3.22;;;21.70;99.90;;;;;;5052884;28;20239;-72
2022/08/12 00:57:36;;;;;;;8.80;3.03;;;21.60;99.90;;;;;;5053065;28;20169;-72
2022/08/12 01:00:07;;;;;;;12.30;3.22;;;21.60;99.90;;;;;;5052818;28;20177;-72
2022/08/12 01:02:38;;;;;;;7.05;2.80;;;21.60;99.90;;;;;;5053148;28;20185;-72
2022/08/12 01:13:24;;;;;;;13.25;3.30;;;21.30;99.90;;;;;;5052828;28;20172;-72
2022/08/12 01:15:56;;;;;;;8.43;3.30;;;21.30;99.90;;;;;;5052368;28;20199;-73
2022/08/12 01:18:31;;;;;;;4.40;3.10;;;21.40;99.90;;;;;;5052375;28;20212;-73
2022/08/12 01:21:21;;;;;;;7.68;3.22;;;21.40;99.90;;;;;;5052279;28;20584;-73
2022/08/12 01:24:17;;;;;;;8.68;3.10;;;21.40;99.90;;;;;;5052334;28;20170;-73
2022/08/12 01:26:46;;;;;;;9.40;3.42;;;21.40;99.90;;;;;;5052371;28;20233;-73
2022/08/12 01:29:17;;;;;;;12.32;3.42;;;21.30;99.90;;;;;;5052134;28;20212;-73
2022/08/12 01:31:48;;;;;;;14.73;3.28;;;21.20;99.90;;;;;;5052160;28;20176;-73
2022/08/12 01:34:20;;;;;;;11.88;3.45;;;21.00;99.90;;;;;;5052095;28;20177;-73
2022/08/12 01:36:53;;;;;;;24.85;3.65;;;20.90;99.90;;;;;;5051954;28;20794;-73
2022/08/12 01:39:25;;;;;;;8.35;3.40;;;20.90;99.90;;;;;;5052058;28;20173;-73
2022/08/12 01:41:52;;;;;;;6.65;3.53;;;20.80;99.90;;;;;;5051948;28;20177;-73
2022/08/12 01:44:20;;;;;;;9.57;3.50;;;20.80;99.90;;;;;;5051720;28;20180;-73
2022/08/12 01:46:59;;;;;;;11.95;3.90;;;20.60;99.90;;;;;;5051668;28;20235;-73
2022/08/12 01:50:04;;;;;;;9.98;4.00;;;20.50;99.90;;;;;;5051894;28;20169;-73
2022/08/12 01:53:11;;;;;;;9.57;3.63;;;20.50;99.90;;;;;;5051846;28;20213;-73
2022/08/12 01:55:43;;;;;;;10.43;3.22;;;20.30;99.90;;;;;;4990233;28;20183;-73
2022/08/12 01:59:45;;;;;;;8.45;3.40;;;20.20;99.90;;;;;;4989843;28;20635;-73
2022/08/12 02:01:23;;;;;;;9.63;3.25;;;20.10;99.90;;;;;;5040085;28;20185;-73
2022/08/12 02:13:59;;;;;;;10.18;3.40;;;20.10;99.90;;;;;;5050548;28;20666;-73
2022/08/12 02:16:58;;;;;;;8.68;3.50;;;20.00;99.90;;;;;;5027922;28;20193;-73
2022/08/12 02:19:58;;;;;;;13.43;3.35;;;20.10;99.90;;;;;;5051350;28;20188;-72
2022/08/12 02:22:26;;;;;;;7.28;3.20;;;20.10;99.90;;;;;;5051297;28;20177;-73
2022/08/12 02:24:54;;;;;;;9.32;3.58;;;20.20;99.90;;;;;;5051524;28;20184;-72
2022/08/12 02:27:23;;;;;;;6.10;3.28;;;20.20;99.90;;;;;;5052183;28;20176;-72
2022/08/12 02:29:49;;;;;;;11.68;3.58;;;20.20;99.90;;;;;;5051260;28;20181;-71
2022/08/12 02:32:15;;;;;;;6.20;3.47;;;20.30;99.90;;;;;;5050025;28;20177;-73
2022/08/12 02:34:43;;;;;;;8.52;3.72;;;20.30;99.90;;;;;;5051012;28;20249;-72
2022/08/12 02:37:14;;;;;;;7.63;3.38;;;20.30;99.90;;;;;;5052161;28;20225;-72
2022/08/12 02:39:47;;;;;;;10.13;3.22;;;20.30;99.90;;;;;;5051395;28;20176;-72
2022/08/12 02:42:15;;;;;;;5.63;3.17;;;20.30;99.90;;;;;;5051247;28;20633;-72
2022/08/12 02:44:45;;;;;;;9.75;3.13;;;20.30;99.90;;;;;;5051111;28;20674;-72
2022/08/12 02:47:15;;;;;;;7.68;3.72;;;20.20;99.90;;;;;;5051924;28;20181;-72
2022/08/12 02:49:50;;;;;;;12.02;3.58;;;20.20;99.90;;;;;;5051447;28;20687;-72
2022/08/12 02:52:17;;;;;;;10.43;3.75;;;20.20;99.90;;;;;;5051248;28;20165;-72
2022/08/12 02:54:48;;;;;;;7.50;3.70;;;20.00;99.90;;;;;;5051505;28;20177;-72
2022/08/12 02:57:18;;;;;;;7.82;3.42;;;20.00;99.90;;;;;;5051518;28;20189;-73
2022/08/12 02:59:47;;;;;;;6.63;3.58;;;20.00;99.90;;;;;;5051555;28;20169;-72
2022/08/12 03:02:18;;;;;;;5.95;3.50;;;19.90;99.90;;;;;;5051033;28;20652;-72
2022/08/12 03:04:52;;;;;;;8.40;3.05;;;19.90;99.90;;;;;;5051861;28;20631;-73
2022/08/12 03:07:25;;;;;;;6.43;3.75;;;19.90;99.90;;;;;;5051771;28;20177;-72
2022/08/12 03:10:13;;;;;;;6.45;3.70;;;19.90;99.90;;;;;;5053283;28;20177;-72
2022/08/12 03:12:51;;;;;;;7.85;3.25;;;19.80;99.90;;;;;;5055542;28;20185;-72
2022/08/12 03:15:21;;;;;;;9.18;3.50;;;19.80;99.90;;;;;;5056895;28;20177;-72
2022/08/12 03:17:53;;;;;;;9.00;3.50;;;19.80;99.90;;;;;;5055990;28;20678;-73
2022/08/12 03:20:21;;;;;;;7.32;3.33;;;19.70;99.90;;;;;;5054948;28;20234;-72
2022/08/12 03:22:47;;;;;;;5.93;3.33;;;19.70;99.90;;;;;;5054659;28;20177;-72
2022/08/12 03:25:16;;;;;;;8.65;3.65;;;19.70;99.90;;;;;;5054967;28;20240;-72
2022/08/12 03:27:54;;;;;;;7.18;3.50;;;19.70;99.90;;;;;;5054515;28;20180;-72
2022/08/12 03:30:24;;;;;;;9.35;3.40;;;19.60;99.90;;;;;;5054689;28;20181;-71
2022/08/12 03:32:51;;;;;;;7.53;3.33;;;19.70;99.90;;;;;;5054501;28;20180;-72
2022/08/12 03:35:25;;;;;;;9.80;3.67;;;19.60;99.90;;;;;;5054394;28;20201;-72
2022/08/12 03:37:55;;;;;;;13.20;3.80;;;19.50;99.90;;;;;;5054411;28;20635;-73
2022/08/12 04:00:23;;;;;;;7.22;3.20;;;19.20;99.90;;;;;;5054128;28;20683;-72
2022/08/12 04:03:01;;;;;;;6.30;3.63;;;19.20;99.90;;;;;;5053641;28;20181;-72
2022/08/12 04:05:31;;;;;;;4.97;3.75;;;19.10;99.90;;;;;;5053663;28;20204;-72
2022/08/12 04:07:58;;;;;;;7.68;4.03;;;19.00;99.90;;;;;;5053790;28;20192;-72
2022/08/12 04:13:14;;;;;;;10.43;3.78;;;18.90;99.90;;;;;;5053621;28;20180;-72
2022/08/12 04:13:20;;;;;;;5.43;3.85;;;19.00;99.90;;;;;;5053553;28;20185;-73
2022/08/12 04:15:46;;;;;;;6.97;3.90;;;19.00;99.90;;;;;;5054126;28;20180;-72
2022/08/12 04:18:14;;;;;;;5.75;3.88;;;19.00;99.90;;;;;;5054186;28;20252;-72
2022/08/12 04:20:43;;;;;;;6.40;3.78;;;18.90;99.90;;;;;;5053592;28;20681;-73
2022/08/12 04:23:13;;;;;;;5.75;3.50;;;18.90;99.90;;;;;;5052575;28;20205;-72
2022/08/12 04:25:40;;;;;;;4.82;3.67;;;18.90;99.90;;;;;;5053439;28;20220;-72
2022/08/12 04:28:10;;;;;;;10.30;3.60;;;18.90;99.90;;;;;;5053289;28;20196;-72
2022/08/12 04:30:36;;;;;;;11.35;3.80;;;18.80;99.90;;;;;;5053294;28;20173;-72
2022/08/12 04:33:05;;;;;;;5.38;3.83;;;18.80;99.90;;;;;;5053564;28;20162;-72
2022/08/12 04:35:31;;;;;;;8.65;4.07;;;18.60;99.90;;;;;;5053168;28;20239;-72
2022/08/12 04:37:57;;;;;;;8.88;4.28;;;18.50;99.90;;;;;;5053091;28;20529;-72
2022/08/12 04:40:26;;;;;;;9.00;4.05;;;18.50;99.90;;;;;;5053065;28;20165;-72
2022/08/12 04:42:52;;;;;;;10.30;4.15;;;18.50;99.90;;;;;;5053123;28;20193;-73
2022/08/12 04:45:18;;;;;;;11.82;3.75;;;18.40;99.90;;;;;;5052972;28;20284;-73
2022/08/12 04:47:45;;;;;;;6.28;3.25;;;18.50;99.90;;;;;;5052926;28;20170;-72
2022/08/12 04:50:15;;;;;;;8.48;3.50;;;18.50;99.90;;;;;;5052864;28;20674;-72
2022/08/12 04:52:41;;;;;;;9.18;3.75;;;18.60;99.90;;;;;;5053118;28;20177;-73
2022/08/12 04:55:09;;;;;;;6.65;3.60;;;18.60;99.90;;;;;;5052977;28;20714;-74
2022/08/12 04:57:35;;;;;;;8.75;4.07;;;18.80;99.90;;;;;;5052889;28;20176;-74
2022/08/12 05:00:07;;;;;;;6.75;3.90;;;18.80;99.90;;;;;;5052750;28;20166;-73
2022/08/12 05:02:32;;;;;;;11.27;3.60;;;18.70;99.90;;;;;;5053120;28;20181;-73
2022/08/12 05:05:00;;;;;;;8.50;3.90;;;18.70;99.90;;;;;;5052470;28;20666;-73
2022/08/12 05:07:26;;;;;;;6.05;3.28;;;18.70;99.90;;;;;;5052597;28;20180;-73
2022/08/12 05:09:52;;;;;;;9.02;3.50;;;18.70;99.90;;;;;;5052578;28;20184;-73
2022/08/12 05:12:18;;;;;;;9.15;3.80;;;18.70;99.90;;;;;;5053042;28;20185;-73
2022/08/12 05:14:45;;;;;;;9.57;4.10;;;18.60;99.90;;;;;;5052800;28;20173;-73
2022/08/12 05:17:10;;;;;;;8.65;3.45;;;18.60;99.90;;;;;;5052666;28;20635;-73
2022/08/12 05:19:36;;;;;;;7.88;4.03;;;18.60;99.90;;;;;;5052438;28;20177;-73
2022/08/12 05:22:02;;;;;;;8.88;4.00;;;18.60;99.90;;;;;;5052200;28;20169;-72
2022/08/12 05:24:28;;;;;;;15.73;3.63;;;18.70;99.90;;;;;;5052372;28;20261;-72
2022/08/12 05:26:53;;;;;;;6.10;3.60;;;18.70;99.90;;;;;;5052012;28;20300;-72
2022/08/12 05:29:19;;;;;;;8.32;3.50;;;18.70;99.90;;;;;;5052154;28;20169;-71
2022/08/12 05:31:45;;;;;;;7.40;3.33;;;18.70;99.90;;;;;;5052187;28;20649;-71
2022/08/12 05:34:13;;;;;;;7.57;3.95;;;18.80;99.90;;;;;;5052056;28;20666;-73
2022/08/12 05:36:40;;;;;;;4.93;3.25;;;18.70;99.90;;;;;;5052009;28;20703;-72
2022/08/12 05:39:06;;;;;;;8.82;3.45;;;18.70;99.90;;;;;;5052032;28;20178;-73
2022/08/12 05:41:34;;;;;;;8.50;3.45;;;18.80;99.90;;;;;;5051885;28;20176;-73
2022/08/12 05:44:08;;;;;;;11.85;3.40;;;18.80;99.90;;;;;;5051766;28;20169;-73
2022/08/12 05:46:35;;;;;;;12.15;4.00;;;18.80;99.90;;;;;;5051635;28;20200;-73
2022/08/12 05:49:02;;;;;;;11.48;3.53;;;18.70;99.90;;;;;;5051760;28;20173;-73
2022/08/12 05:51:38;;;;;;;13.48;3.97;;;18.70;99.90;;;;;;5051786;28;20177;-73
2022/08/12 05:54:04;;;;;;;16.40;3.70;;;18.60;99.90;;;;;;5051477;28;20207;-72
2022/08/12 05:56:33;;;;;;;15.80;3.70;;;18.70;99.90;;;;;;5051592;28;20168;-73
2022/08/12 05:59:00;;;;;;;14.13;3.85;;;20.30;99.90;;;;;;5050304;28;20700;-72
2022/08/12 06:01:28;;;;;;;7.63;3.60;;;18.70;99.90;;;;;;5051485;28;20704;-72
2022/08/12 06:03:55;;;;;;;12.68;3.72;;;18.70;99.90;;;;;;5051590;28;20173;-72
2022/08/12 06:06:22;;;;;;;13.02;3.80;;;18.70;99.90;;;;;;5051363;28;20625;-72
2022/08/12 06:08:52;;;;;;;10.93;4.43;;;18.70;99.90;;;;;;5051443;28;20199;-73
2022/08/12 06:11:26;;;;;;;14.85;4.13;;;18.80;99.90;;;;;;5051416;28;20181;-72
2022/08/12 06:13:57;;;;;;;11.13;3.80;;;18.80;99.90;;;;;;5051414;28;20176;-72
2022/08/12 06:16:23;;;;;;;17.13;4.18;;;18.80;99.90;;;;;;5051480;28;20172;-73
2022/08/12 06:18:49;;;;;;;13.20;3.83;;;18.90;99.90;;;;;;5050089;28;20215;-73
2022/08/12 06:21:17;;;;;;;11.00;4.57;;;18.90;99.90;;;;;;5051300;28;20230;-73
2022/08/12 06:23:44;;;;;;;17.90;4.40;;;19.00;99.90;;;;;;5051368;28;20173;-72
2022/08/12 06:26:11;;;;;;;19.48;3.88;;;20.70;99.90;;;;;;5051005;28;20234;-73
2022/08/12 06:28:42;;;;;;;11.88;4.03;;;19.10;99.90;;;;;;5051244;28;20173;-71
2022/08/12 06:31:09;;;;;;;12.48;4.50;;;19.20;99.90;;;;;;5051194;28;20176;-71
2022/08/12 06:33:35;;;;;;;20.45;4.95;;;19.30;99.90;;;;;;5051150;28;20168;-72
2022/08/12 06:36:01;;;;;;;20.73;4.85;;;19.30;99.90;;;;;;5050989;28;20213;-72
2022/08/12 06:38:29;;;;;;;14.90;4.57;;;19.40;99.90;;;;;;5051058;28;20602;-72
2022/08/12 06:43:43;;;;;;;24.23;4.63;;;19.70;99.90;;;;;;5051121;28;20244;-72
2022/08/12 06:46:10;;;;;;;14.20;4.57;;;19.80;99.90;;;;;;5050447;28;20219;-72
2022/08/12 06:48:36;;;;;;;17.73;4.68;;;19.90;99.90;;;;;;5051033;28;20223;-72
2022/08/12 06:51:03;;;;;;;21.92;4.10;;;20.10;99.90;;;;;;5050871;28;20180;-72
2022/08/12 06:53:31;;;;;;;12.35;3.90;;;20.10;99.90;;;;;;5050695;28;20252;-72
2022/08/12 06:55:59;;;;;;;15.20;3.88;;;20.20;99.90;;;;;;5051269;28;20189;-72
2022/08/12 06:58:26;;;;;;;14.52;3.88;;;20.30;99.90;;;;;;5049515;28;20204;-72
2022/08/12 07:00:52;;;;;;;8.23;3.30;;;20.40;99.90;;;;;;5049460;28;20648;-72
2022/08/12 07:03:24;;;;;;;7.70;2.80;;;20.50;99.90;;;;;;5050603;28;20177;-71
2022/08/12 07:05:50;;;;;;;9.95;2.85;;;20.50;99.90;;;;;;5051056;28;20236;-72
2022/08/12 07:08:16;;;;;;;5.15;2.83;;;20.70;99.90;;;;;;5050803;28;20176;-73
2022/08/12 07:10:57;;;;;;;10.27;2.80;;;20.80;99.90;;;;;;5050819;28;20271;-72
2022/08/12 07:13:25;;;;;;;7.55;2.70;;;21.00;99.90;;;;;;5050798;28;20196;-72
2022/08/12 07:15:54;;;;;;;10.23;2.50;;;21.10;99.90;;;;;;5050666;28;20177;-72
2022/08/12 07:18:20;;;;;;;5.93;2.40;;;21.30;99.90;;;;;;5050661;28;20268;-71
2022/08/12 07:20:47;;;;;;;9.60;2.40;;;21.40;99.90;;;;;;5050734;28;20166;-72
2022/08/12 07:23:15;;;;;;;9.35;2.38;;;21.60;99.90;;;;;;5050626;28;20177;-71
2022/08/12 07:25:41;;;;;;;6.53;2.70;;;21.70;99.90;;;;;;5049197;28;20247;-72
2022/08/12 07:28:13;;;;;;;12.45;2.10;;;21.80;99.90;;;;;;5050522;28;20169;-72
2022/08/12 07:30:41;;;;;;;15.98;2.67;;;21.90;99.90;;;;;;5050600;28;20169;-71
2022/08/12 07:33:08;;;;;;;7.13;2.53;;;22.00;99.90;;;;;;5050973;28;20178;-71
2022/08/12 07:35:44;;;;;;;7.38;2.40;;;22.10;99.90;;;;;;5050594;28;20216;-71
2022/08/12 07:38:25;;;;;;;6.53;2.25;;;22.20;99.90;;;;;;5050533;28;20177;-71
2022/08/12 07:40:57;;;;;;;10.13;2.28;;;22.30;99.90;;;;;;5050580;28;20315;-71
2022/08/12 07:43:23;;;;;;;6.45;2.40;;;22.40;99.90;;;;;;5050540;28;20268;-71
2022/08/12 07:45:52;;;;;;;9.95;2.78;;;22.50;99.90;;;;;;5049382;28;20268;-70
2022/08/12 07:48:18;;;;;;;5.07;2.30;;;22.60;99.90;;;;;;5050460;28;20165;-71
2022/08/12 07:50:44;;;;;;;8.75;2.72;;;22.70;99.90;;;;;;5050417;28;20173;-71
2022/08/12 07:53:10;;;;;;;6.32;2.60;;;22.80;99.90;;;;;;5050405;28;20184;-71
2022/08/12 07:55:36;;;;;;;7.82;2.30;;;22.80;99.90;;;;;;5049120;28;20708;-70
2022/08/12 07:58:02;;;;;;;4.28;2.17;;;22.90;99.90;;;;;;5052423;28;20552;-71
2022/08/12 08:00:33;;;;;;;5.70;2.50;;;23.00;99.90;;;;;;5053860;28;20177;-71
2022/08/12 08:02:59;;;;;;;7.65;2.25;;;23.20;99.90;;;;;;5052541;28;20169;-71
2022/08/12 08:05:31;;;;;;;9.57;2.60;;;23.30;99.90;;;;;;5053798;28;20207;-71
2022/08/12 08:08:01;;;;;;;5.18;2.80;;;23.40;99.90;;;;;;5053963;28;20188;-70
2022/08/12 08:10:28;;;;;;;16.30;2.78;;;23.50;99.90;;;;;;5054476;28;20173;-71
2022/08/12 08:12:57;;;;;;;6.75;2.75;;;23.70;99.90;;;;;;5054041;28;20188;-71
2022/08/12 08:15:25;;;;;;;5.50;2.40;;;23.80;99.90;;;;;;5053773;28;20177;-71
2022/08/12 08:17:59;;;;;;;4.15;2.13;;;24.00;99.90;;;;;;5053783;28;20161;-71
2022/08/12 08:20:32;;;;;;;4.57;2.17;;;24.20;99.90;;;;;;5053705;28;20589;-71
2022/08/12 08:23:02;;;;;;;12.02;2.50;;;24.40;99.90;;;;;;5054187;28;20256;-71
2022/08/12 08:25:31;;;;;;;8.23;2.15;;;24.70;99.90;;;;;;5053641;28;20219;-72
2022/08/12 08:28:02;;;;;;;8.50;2.42;;;25.00;99.90;;;;;;5053309;28;20581;-71
2022/08/12 08:30:30;;;;;;;4.80;2.13;;;26.80;99.90;;;;;;5051997;28;20169;-71
2022/08/12 08:32:56;;;;;;;9.60;2.22;;;28.40;99.90;;;;;;5053610;28;20648;-71
2022/08/12 08:35:23;;;;;;;10.45;2.35;;;29.40;99.90;;;;;;5052773;28;20686;-72
2022/08/12 08:37:50;;;;;;;4.38;2.30;;;30.40;99.90;;;;;;5053196;28;20177;-72
2022/08/12 08:43:00;;;;;;;8.85;2.10;;;31.60;99.90;;;;;;5053069;28;20188;-70
2022/08/12 08:45:27;;;;;;;11.60;2.45;;;32.30;99.90;;;;;;5052955;28;20193;-71
2022/08/12 08:47:53;;;;;;;15.20;2.65;;;32.90;99.90;;;;;;5052864;28;20196;-71
2022/08/12 08:50:19;;;;;;;8.43;1.90;;;32.90;99.90;;;;;;5053131;28;20176;-71
2022/08/12 08:52:47;;;;;;;9.70;2.80;;;33.20;99.90;;;;;;5052961;28;20250;-70
2022/08/12 08:55:14;;;;;;;9.32;1.92;;;33.40;99.90;;;;;;5053085;28;20196;-71
2022/08/12 08:57:46;;;;;;;6.75;2.17;;;33.30;99.90;;;;;;5052773;28;20184;-70
2022/08/12 09:00:14;;;;;;;8.27;2.03;;;33.50;99.90;;;;;;5052598;28;20177;-71
2022/08/12 09:02:40;;;;;;;6.57;2.17;;;33.60;99.90;;;;;;5051466;28;20176;-70
2022/08/12 09:05:06;;;;;;;8.52;2.63;;;34.00;99.90;;;;;;5052633;28;20169;-70
2022/08/12 09:07:42;;;;;;;11.32;2.47;;;34.20;99.90;;;;;;5052275;28;20188;-70
2022/08/12 09:10:08;;;;;;;7.68;2.20;;;34.10;99.90;;;;;;5052659;28;20634;-70
2022/08/12 09:15:18;;;;;;;10.88;2.40;;;33.50;99.90;;;;;;5052572;28;20187;-70
2022/08/12 09:17:54;;;;;;;12.55;2.30;;;32.80;99.90;;;;;;5052528;28;20247;-70
2022/08/12 09:20:26;;;;;;;11.00;2.50;;;32.20;99.90;;;;;;5052530;28;20198;-70
2022/08/12 09:22:53;;;;;;;8.65;2.40;;;31.90;99.90;;;;;;5052490;28;20183;-69
2022/08/12 09:25:25;;;;;;;6.78;2.13;;;31.90;99.90;;;;;;5052295;28;20197;-69
2022/08/12 09:27:54;;;;;;;11.48;2.30;;;31.90;99.90;;;;;;5052487;28;20185;-70
2022/08/12 09:30:20;;;;;;;11.55;2.42;;;32.10;99.90;;;;;;5052218;28;20200;-69
2022/08/12 09:32:50;;;;;;;9.88;2.55;;;32.10;99.90;;;;;;5052037;28;20176;-70
2022/08/12 09:35:30;;;;;;;15.10;2.67;;;32.20;99.90;;;;;;5051930;28;20201;-69
2022/08/12 09:37:56;;;;;;;15.93;2.40;;;32.30;99.90;;;;;;5052015;28;20183;-69
2022/08/12 09:40:23;;;;;;;11.52;2.20;;;31.90;99.90;;;;;;5051995;28;20226;-68
2022/08/12 09:45:34;;;;;;;11.48;2.20;;;31.80;99.90;;;;;;5051804;28;20288;-69
2022/08/12 09:48:07;;;;;;;12.82;2.00;;;32.30;99.90;;;;;;5051717;28;20603;-68
2022/08/12 09:50:34;;;;;;;15.30;2.45;;;32.30;99.90;;;;;;5051759;28;20211;-69
2022/08/12 09:53:07;;;;;;;7.45;2.42;;;32.40;99.90;;;;;;5051986;28;20177;-69
2022/08/12 09:55:34;;;;;;;10.43;2.28;;;32.80;99.90;;;;;;5051797;28;20256;-69
2022/08/12 09:58:01;;;;;;;12.45;2.70;;;32.70;99.90;;;;;;5051674;28;20169;-68
2022/08/12 10:00:27;;;;;;;11.18;2.65;;;33.00;99.90;;;;;;5051604;28;20691;-68
2022/08/12 10:03:11;;;;;;;14.77;2.40;;;33.40;99.90;;;;;;5051507;28;20260;-68
2022/08/12 10:05:44;;;;;;;12.40;2.40;;;33.80;99.90;;;;;;5051433;28;20251;-68
2022/08/12 10:08:12;;;;;;;8.70;2.17;;;34.10;99.90;;;;;;5051555;28;20256;-69
2022/08/12 10:13:43;;;;;;;14.57;2.50;;;33.90;99.90;;;;;;5051699;28;20168;-69
2022/08/12 10:16:13;;;;;;;13.95;2.25;;;34.00;99.90;;;;;;5051473;28;20267;-69
2022/08/12 10:18:42;;;;;;;5.88;2.40;;;33.90;99.90;;;;;;5051291;28;20671;-68
2022/08/12 10:21:19;;;;;;;8.90;2.08;;;34.60;99.90;;;;;;5050583;28;20189;-69
2022/08/12 10:23:47;;;;;;;11.48;2.10;;;34.40;99.90;;;;;;5051266;28;20169;-69
2022/08/12 10:31:45;;;;;;;4.00;2.17;;;35.30;99.90;;;;;;5051064;28;20555;-68
2022/08/12 10:34:14;;;;;;;4.40;2.60;;;35.70;99.90;;;;;;5050784;28;20157;-68
2022/08/12 10:36:41;;;;;;;14.43;2.42;;;35.10;99.90;;;;;;5050768;28;20217;-68
2022/08/12 10:39:10;;;;;;;3.88;2.35;;;35.50;99.90;;;;;;5050991;28;20299;-68
2022/08/12 10:44:21;;;;;;;10.18;3.00;;;37.00;99.90;;;;;;5051028;28;20184;-69
2022/08/12 10:46:49;;;;;;;6.03;2.35;;;37.80;99.90;;;;;;5051034;28;20262;-69
2022/08/12 10:49:15;;;;;;;8.15;2.40;;;37.60;99.90;;;;;;5051038;28;20635;-69
2022/08/12 10:51:41;;;;;;;5.35;2.40;;;37.70;99.90;;;;;;5051034;28;20177;-69
2022/08/12 10:54:08;;;;;;;12.70;3.05;;;37.50;99.90;;;;;;5050956;28;20219;-69
2022/08/12 10:56:35;;;;;;;9.20;2.72;;;37.30;99.90;;;;;;5051133;28;20654;-69
2022/08/12 10:59:06;;;;;;;10.38;3.10;;;37.80;99.90;;;;;;5050654;28;20168;-69
2022/08/12 11:01:32;;;;;;;9.05;2.95;;;38.40;99.90;;;;;;5050900;28;20176;-68
2022/08/12 11:04:00;;;;;;;5.85;3.00;;;38.80;99.30;;;;;;5050857;28;20200;-67
2022/08/12 11:06:26;;;;;;;11.23;2.50;;;37.30;98.20;;;;;;5050974;28;20706;-68
2022/08/12 11:08:55;;;;;;;6.60;2.38;;;36.00;98.80;;;;;;5050795;28;20609;-70
2022/08/12 11:11:22;;;;;;;8.00;2.80;;;36.60;99.00;;;;;;5050639;28;20212;-67
2022/08/12 11:13:47;;;;;;;12.15;2.72;;;36.40;98.10;;;;;;5050559;28;20173;-68
2022/08/12 11:16:15;;;;;;;5.90;2.90;;;37.50;98.20;;;;;;5050688;28;20700;-68
2022/08/12 11:18:40;;;;;;;10.15;2.53;;;37.40;97.60;;;;;;5050593;28;20639;-68
2022/08/12 11:21:06;;;;;;;5.97;2.60;;;38.00;97.00;;;;;;5050483;28;20173;-68
2022/08/12 11:23:32;;;;;;;8.95;2.70;;;37.70;96.50;;;;;;5050587;28;20256;-67
2022/08/12 11:25:57;;;;;;;10.20;3.10;;;37.20;96.90;;;;;;5050425;28;20602;-68
2022/08/12 11:28:23;;;;;;;9.30;2.85;;;36.70;97.00;;;;;;5050507;28;20496;-68
2022/08/12 11:30:49;;;;;;;8.07;2.67;;;37.00;96.90;;;;;;5051012;28;20191;-69
2022/08/12 11:33:15;;;;;;;9.05;2.60;;;37.70;96.30;;;;;;5054525;28;20230;-68
2022/08/12 11:35:42;;;;;;;8.15;2.60;;;37.30;96.20;;;;;;5054187;28;20208;-68
2022/08/12 11:38:11;;;;;;;8.77;3.20;;;37.60;95.30;;;;;;5053166;28;20198;-68
2022/08/12 11:40:37;;;;;;;3.60;2.40;;;38.80;94.80;;;;;;5054376;28;20169;-68
2022/08/12 11:43:02;;;;;;;4.65;2.63;;;38.90;94.90;;;;;;5054097;28;20179;-67
2022/08/12 11:45:29;;;;;;;7.40;2.90;;;38.90;94.70;;;;;;5054312;28;20211;-67
2022/08/12 11:47:58;;;;;;;7.38;2.80;;;38.10;94.50;;;;;;5054174;28;20179;-68
2022/08/12 11:50:24;;;;;;;8.85;2.80;;;39.00;94.60;;;;;;5053028;28;20267;-68
2022/08/12 11:52:50;;;;;;;9.82;2.88;;;40.10;94.40;;;;;;5053974;28;20179;-68
2022/08/12 11:55:17;;;;;;;6.28;2.83;;;40.10;94.50;;;;;;5053935;28;20196;-68
2022/08/12 11:57:53;;;;;;;8.23;3.10;;;40.80;93.50;;;;;;5053926;28;20168;-68
2022/08/12 12:00:20;;;;;;;9.57;2.92;;;40.60;92.60;;;;;;5052636;28;20230;-68
2022/08/12 12:02:46;;;;;;;7.13;3.05;;;40.80;92.30;;;;;;5053938;28;20175;-68
2022/08/12 12:05:14;;;;;;;8.00;3.20;;;41.10;92.10;;;;;;5053668;28;20260;-68
2022/08/12 12:07:41;;;;;;;9.32;3.13;;;41.30;91.40;;;;;;5053710;28;20184;-68
2022/08/12 12:10:07;;;;;;;7.53;2.85;;;41.60;91.40;;;;;;5053690;28;20160;-68
2022/08/12 12:12:34;;;;;;;4.18;2.60;;;42.00;90.80;;;;;;5053922;28;20192;-68
2022/08/12 12:14:59;;;;;;;16.67;2.50;;;39.60;90.50;;;;;;5053686;28;20276;-68
2022/08/12 12:17:26;;;;;;;6.80;2.88;;;39.50;91.70;;;;;;5053497;28;20663;-68
2022/08/12 12:19:52;;;;;;;8.50;3.35;;;39.60;91.10;;;;;;5053419;28;20196;-68
2022/08/12 12:22:19;;;;;;;13.55;3.35;;;39.80;90.70;;;;;;5053412;28;20619;-68
2022/08/12 12:24:46;;;;;;;10.43;3.50;;;39.60;90.80;;;;;;5053478;28;20203;-67
2022/08/12 12:27:12;;;;;;;9.50;2.83;;;40.30;90.10;;;;;;5053373;28;20216;-68
2022/08/12 12:29:37;;;;;;;10.50;3.40;;;39.80;89.70;;;;;;5053333;28;20173;-68
2022/08/12 12:32:03;;;;;;;10.65;4.40;;;38.50;90.00;;;;;;5053411;28;20176;-67
2022/08/12 12:34:29;;;;;;;8.68;3.78;;;39.70;88.50;;;;;;5053321;28;20169;-68
2022/08/12 12:36:55;;;;;;;11.63;3.05;;;40.20;87.70;;;;;;5053382;28;20714;-68
2022/08/12 12:39:20;;;;;;;9.57;3.10;;;40.00;89.60;;;;;;5053254;28;20251;-68
2022/08/12 12:41:46;;;;;;;10.90;3.03;;;39.00;88.10;;;;;;5053049;28;20173;-68
2022/08/12 12:44:12;;;;;;;13.63;2.75;;;39.20;88.60;;;;;;5052456;28;20176;-68
2022/08/12 12:46:38;;;;;;;10.60;2.88;;;39.10;87.90;;;;;;5052963;28;20243;-66
2022/08/12 12:49:03;;;;;;;6.63;2.63;;;39.20;88.60;;;;;;5053024;28;20658;-66
2022/08/12 12:51:29;;;;;;;6.40;2.60;;;39.00;90.40;;;;;;5052941;28;20180;-66
2022/08/12 12:53:55;;;;;;;6.45;2.40;;;40.50;88.30;;;;;;5053131;28;20647;-66
2022/08/12 12:56:22;;;;;;;8.35;2.85;;;40.40;89.20;;;;;;5052849;28;20626;-68
2022/08/12 12:58:50;;;;;;;10.85;2.88;;;40.50;88.50;;;;;;5052852;28;20207;-68
2022/08/12 13:01:26;;;;;;;9.00;2.90;;;40.60;87.40;;;;;;5052717;28;20161;-68
2022/08/12 13:03:55;;;;;;;9.73;2.67;;;40.90;88.20;;;;;;5052703;28;20199;-67
2022/08/12 13:06:25;;;;;;;6.30;2.25;;;41.10;86.80;;;;;;5052740;28;20221;-68
2022/08/12 13:08:57;;;;;;;11.32;2.20;;;41.00;85.20;;;;;;5052590;28;20643;-68
2022/08/12 13:11:23;;;;;;;7.63;2.60;;;41.60;85.90;;;;;;5052607;28;20172;-68
2022/08/12 13:13:51;;;;;;;6.03;2.40;;;42.10;86.20;;;;;;5052497;28;20177;-68
2022/08/12 13:16:19;;;;;;;7.25;2.47;;;40.00;84.10;;;;;;5052248;28;20189;-68
2022/08/12 13:18:49;;;;;;;4.20;2.50;;;39.90;84.60;;;;;;5052338;28;20189;-67
2022/08/12 13:21:16;;;;;;;8.57;2.22;;;39.40;84.40;;;;;;5052325;28;20171;-69
2022/08/12 13:23:46;;;;;;;8.70;2.22;;;39.80;86.30;;;;;;5052194;28;20211;-67
2022/08/12 13:26:12;;;;;;;5.20;2.60;;;40.30;85.70;;;;;;5052049;28;20215;-68
2022/08/12 13:28:41;;;;;;;10.38;3.13;;;40.10;86.80;;;;;;5052058;28;20179;-67
2022/08/12 13:31:07;;;;;;;8.55;2.58;;;40.40;88.10;;;;;;5052079;28;20225;-68
2022/08/12 13:33:33;;;;;;;8.60;2.33;;;41.20;88.00;;;;;;5052092;28;20565;-68
2022/08/12 13:36:02;;;;;;;9.68;2.45;;;41.00;84.20;;;;;;5051980;28;20244;-69
2022/08/12 13:38:43;;;;;;;9.38;2.42;;;41.20;84.90;;;;;;5052059;28;20172;-68
2022/08/12 13:41:34;;;;;;;5.25;2.30;;;41.60;85.60;;;;;;5051968;28;20165;-68
2022/08/12 13:44:03;;;;;;;7.78;2.45;;;41.80;85.00;;;;;;5051940;28;20575;-69
2022/08/12 13:46:29;;;;;;;6.18;2.70;;;42.30;84.60;;;;;;5051889;28;20204;-69
2022/08/12 13:48:55;;;;;;;10.98;3.00;;;43.00;83.60;;;;;;5052049;28;20235;-69
2022/08/12 13:51:22;;;;;;;8.60;2.55;;;42.70;83.20;;;;;;5051902;28;20165;-68
2022/08/12 13:53:48;;;;;;;7.15;2.80;;;42.80;82.60;;;;;;5051581;28;20189;-69
2022/08/12 13:56:13;;;;;;;8.88;2.90;;;43.10;82.40;;;;;;5050933;28;20169;-68
2022/08/12 13:58:47;;;;;;;5.78;2.70;;;43.30;81.20;;;;;;5051581;28;20251;-66
2022/08/12 14:01:14;;;;;;;6.47;2.70;;;43.50;81.30;;;;;;5051774;28;20259;-68
2022/08/12 14:03:41;;;;;;;7.45;2.60;;;43.00;80.00;;;;;;5051965;28;20175;-69
2022/08/12 14:06:07;;;;;;;8.98;2.60;;;42.50;80.90;;;;;;5051367;28;20662;-68
2022/08/12 14:08:33;;;;;;;5.88;2.40;;;43.10;81.90;;;;;;5051473;28;20173;-69
2022/08/12 14:10:59;;;;;;;5.93;2.63;;;43.30;80.60;;;;;;5051432;28;20172;-68
2022/08/12 14:13:28;;;;;;;11.57;2.75;;;44.00;80.00;;;;;;5051419;28;20164;-68
2022/08/12 14:15:59;;;;;;;4.50;2.58;;;44.00;79.70;;;;;;5051359;28;20167;-68
2022/08/12 14:18:27;;;;;;;16.60;3.17;;;43.80;78.30;;;;;;5051406;28;20255;-69
2022/08/12 14:20:57;;;;;;;6.82;2.75;;;43.40;78.20;;;;;;5051377;28;20201;-69
2022/08/12 14:23:24;;;;;;;11.10;3.30;;;42.60;79.30;;;;;;5051287;28;20184;-68
2022/08/12 14:25:51;;;;;;;4.80;2.50;;;43.00;77.80;;;;;;5051106;28;20212;-68
2022/08/12 14:28:19;;;;;;;5.00;3.00;;;43.40;77.70;;;;;;5051149;28;20176;-68
2022/08/12 14:30:52;;;;;;;9.32;2.58;;;42.60;76.60;;;;;;5051258;28;20646;-67
2022/08/12 14:33:22;;;;;;;5.80;2.78;;;41.80;75.90;;;;;;5051056;28;20678;-66
2022/08/12 14:35:49;;;;;;;12.70;2.60;;;42.10;77.30;;;;;;5050888;28;20406;-68
2022/08/12 14:38:22;;;;;;;7.32;2.80;;;43.00;77.50;;;;;;5051139;28;20564;-68